createdAt,value
2024-03-30T00:04:25.459Z,51
2024-03-30T00:14:25.478Z,49
2024-03-30T00:24:25.526Z,48
2024-03-30T00:34:25.498Z,46
2024-03-30T00:44:25.542Z,44
2024-03-30T00:54:25.465Z,41
2024-03-30T01:04:25.542Z,41
2024-03-30T01:14:25.471Z,41
2024-03-30T01:24:25.531Z,39
2024-03-30T01:34:25.541Z,39
2024-03-30T01:44:25.429Z,39
2024-03-30T01:54:25.498Z,39
2024-03-30T02:04:25.444Z,41
2024-03-30T02:14:25.426Z,42
2024-03-30T02:24:25.516Z,41
2024-03-30T02:34:25.439Z,43
2024-03-30T02:44:25.432Z,44
2024-03-30T02:54:25.568Z,44
2024-03-30T03:04:25.531Z,46
2024-03-30T03:14:25.391Z,47
2024-03-30T03:24:25.566Z,48
2024-03-30T03:34:25.410Z,50
2024-03-30T03:44:25.520Z,52
2024-03-30T03:54:25.515Z,53
2024-03-30T04:04:25.541Z,49
2024-03-30T04:14:25.457Z,51
2024-03-30T04:24:25.393Z,55
2024-03-30T04:34:25.590Z,56
2024-03-30T04:44:25.498Z,57
2024-03-30T04:54:25.397Z,57
2024-03-30T05:04:25.543Z,58
2024-03-30T05:14:25.566Z,58
2024-03-30T05:24:25.420Z,61
2024-03-30T05:34:25.293Z,57
2024-03-30T05:44:25.294Z,57
2024-03-30T05:54:25.390Z,61
2024-03-30T06:04:25.445Z,51
2024-03-30T06:14:25.546Z,49
2024-03-30T06:24:25.273Z,40
2024-03-30T06:34:25.414Z,36
2024-03-30T06:44:25.286Z,35
2024-03-30T06:54:25.422Z,46
2024-03-30T07:04:25.360Z,64
2024-03-30T07:14:25.288Z,71
2024-03-30T07:24:25.403Z,81
2024-03-30T07:34:25.408Z,87
2024-03-30T07:44:25.543Z,94
2024-03-30T07:54:25.401Z,92
2024-03-30T08:04:25.226Z,98
2024-03-30T08:14:25.450Z,97
2024-03-30T08:24:25.396Z,98
2024-03-30T08:34:25.348Z,100
2024-03-30T08:44:25.337Z,100
2024-03-30T08:54:25.404Z,99
2024-03-30T09:04:25.368Z,99
2024-03-30T09:14:25.254Z,92
2024-03-30T09:24:25.351Z,89
2024-03-30T09:34:33.576Z,93
2024-03-30T09:44:33.248Z,78
2024-03-30T09:54:25.296Z,64
2024-03-30T10:04:25.249Z,57
2024-03-30T10:14:25.375Z,52
2024-03-30T10:24:25.173Z,56
2024-03-30T10:34:25.235Z,51
2024-03-30T10:44:25.078Z,52
2024-03-30T10:54:25.229Z,50
2024-03-30T11:04:25.259Z,52
2024-03-30T11:14:25.216Z,48
2024-03-30T11:24:25.181Z,46
2024-03-30T11:34:25.182Z,48
2024-03-30T11:44:25.309Z,48
2024-03-30T11:54:25.170Z,50
2024-03-30T12:04:25.154Z,47
2024-03-30T12:14:25.209Z,49
2024-03-30T12:24:25.121Z,48
2024-03-30T12:34:25.110Z,49
2024-03-30T12:44:25.123Z,50
2024-03-30T12:54:25.116Z,48
2024-03-30T13:04:25.234Z,50
2024-03-30T13:14:24.944Z,50
2024-03-30T13:24:25.202Z,48
2024-03-30T13:34:25.055Z,52
2024-03-30T13:44:25.169Z,48
2024-03-30T13:54:25.044Z,48
2024-03-30T14:04:25.059Z,47
2024-03-30T14:14:25.022Z,48
2024-03-30T14:24:25.003Z,46
2024-03-30T14:34:25.021Z,45
2024-03-30T14:44:25.031Z,48
2024-03-30T14:54:24.838Z,47
2024-03-30T15:04:24.868Z,50
2024-03-30T15:14:24.853Z,49
2024-03-30T15:24:24.962Z,45
2024-03-30T15:34:24.838Z,44
2024-03-30T15:44:24.922Z,44
2024-03-30T15:54:24.801Z,45
2024-03-30T16:04:24.773Z,45
2024-03-30T16:14:24.763Z,44
2024-03-30T16:24:24.771Z,52
2024-03-30T16:34:24.743Z,48
2024-03-30T16:44:24.870Z,48
2024-03-30T16:54:24.758Z,49
2024-03-30T17:04:24.905Z,50
2024-03-30T17:14:24.742Z,51
2024-03-30T17:24:24.817Z,53
2024-03-30T17:34:24.732Z,55
2024-03-30T17:44:24.832Z,60
2024-03-30T17:54:24.769Z,69
2024-03-30T18:04:24.703Z,79
2024-03-30T18:14:24.826Z,85
2024-03-30T18:24:24.826Z,85
2024-03-30T18:34:24.806Z,92
2024-03-30T18:44:24.683Z,97
2024-03-30T18:54:24.681Z,98
2024-03-30T19:04:24.665Z,96
2024-03-30T19:14:24.911Z,96
2024-03-30T19:34:24.655Z,99
2024-03-30T19:44:24.763Z,99
2024-03-30T19:54:24.881Z,100
2024-03-30T20:04:24.757Z,100
2024-03-30T20:14:24.750Z,100
2024-03-30T20:24:24.851Z,100
2024-03-30T20:34:24.747Z,100
2024-03-30T20:44:24.706Z,100
2024-03-30T20:54:24.768Z,100
2024-03-30T21:04:24.741Z,100
2024-03-30T21:14:24.698Z,100
2024-03-30T21:24:24.736Z,100
2024-03-30T21:34:24.803Z,100
2024-03-30T21:44:24.752Z,100
2024-03-30T21:54:24.696Z,100
2024-03-30T22:04:24.668Z,100
2024-03-30T22:14:24.640Z,100
2024-03-30T22:24:24.663Z,100
2024-03-30T22:34:24.737Z,99
2024-03-30T22:44:24.646Z,98
2024-03-30T22:54:24.699Z,98
2024-03-30T23:04:24.657Z,98
2024-03-30T23:14:24.729Z,98
2024-03-30T23:24:24.737Z,98
2024-03-30T23:34:24.706Z,99
2024-03-30T23:44:24.612Z,98
2024-03-30T23:54:24.812Z,96
